Terminal Aerodrome Forecast
Issued by NWS

Home | Current Version | Previous Version | Text Only | Print | Product List | Glossary On
Versions: 1 2 3 4 5 6 7 8 9 10 11 12 13 14 15 16 17 18 19 20 21 22 23 24 25 26 27 28 29 30 31 32 33 34 35 36 37 38 39
000
FTUS41 KGYX 231744
TAFMHT
TAF
KMHT 231744Z 2318/2418 15008KT P6SM BKN025 OVC100
     FM231900 16007KT 6SM -RASN BKN025
     FM232100 17007KT 4SM -RA OVC015
     FM240400 22006KT P6SM BKN025
     FM240800 29006KT P6SM FEW250=

USA.gov is the U.S. government's official web portal to all federal, state and local government web resources and services.